Saturday, January 20, 2018, 10:08 AM EST
Back to Local

KJHW, Jamestown, Chautauqua County/jamestown Airport

Location: Jamestown, NY, United States Lat: 42.15
Local Time: 10:08 AM EST (15:08 GMT) Lon: -79.267
Time Zone: US/Eastern Elev: 1722 ft

Show me the last for .
Show Decoded

2018-01-20 08:56 METAR KJHW 201356Z AUTO 22009KT 10SM CLR M01/M05 A2990 RMK AO2 SLP148 T10061050
                 FZRANO =
2018-01-20 07:56 METAR KJHW 201256Z AUTO 21011KT 10SM CLR M01/M06 A2987 RMK AO2 SLP137 T10111056
                 FZRANO =
2018-01-20 06:56 METAR KJHW 201156Z AUTO 21014G18KT 10SM CLR M01/M06 A2985 RMK AO2 SLP128
                 T10061056 10000 21006 53014 FZRANO =
2018-01-20 05:56 METAR KJHW 201056Z AUTO 22012KT 10SM CLR M01/M06 A2983 RMK AO2 SLP124 T10061056
                 FZRANO =
2018-01-20 04:56 METAR KJHW 200956Z AUTO 21014KT 10SM CLR M01/M06 A2981 RMK AO2 SLP115 T10061061
                 FZRANO =
2018-01-20 03:56 METAR KJHW 200856Z AUTO 21015G24KT 10SM CLR M01/M06 A2980 RMK AO2 SLP114
                 T10061061 53006 FZRANO =
2018-01-20 01:56 METAR KJHW 200656Z AUTO 21015G25KT 10SM CLR M01/M07 A2979 RMK AO2 PK WND
                 21026/0635 SLP109 T10061067 FZRANO =
2018-01-20 00:56 METAR KJHW 200556Z AUTO 20010G20KT 10SM CLR M01/M07 A2979 RMK AO2 SLP108
                 T10061072 10000 21006 56016 FZRANO =
2018-01-19 23:56 METAR KJHW 200456Z AUTO 19011KT 10SM CLR M01/M07 A2980 RMK AO2 SLP116 T10061072
                 400171083 FZRANO =
2018-01-19 22:56 METAR KJHW 200356Z AUTO 19012G19KT 10SM CLR M01/M07 A2981 RMK AO2 SLP121
                 T10061072 FZRANO =
2018-01-19 21:56 METAR KJHW 200256Z AUTO 20012KT 10SM CLR M01/M07 A2984 RMK AO2 SLP129 T10061072
                 58013 FZRANO =
2018-01-19 20:56 METAR KJHW 200156Z AUTO 20012KT 10SM CLR M01/M07 A2986 RMK AO2 SLP140 T10061072
                 FZRANO =
2018-01-19 19:56 METAR KJHW 200056Z AUTO 21013KT 10SM CLR 00/M07 A2986 RMK AO2 SLP139 T00001072
                 FZRANO =
2018-01-19 18:56 METAR KJHW 192356Z AUTO 21014G23KT 10SM CLR 00/M08 A2987 RMK AO2 SLP144
                 T00001083 10017 21011 53001 FZRANO =
2018-01-19 17:56 METAR KJHW 192256Z AUTO 21017G23KT 10SM CLR 00/M08 A2987 RMK AO2 SLP141
                 T00001078 FZRANO TSNO =
2018-01-19 16:56 METAR KJHW 192156Z AUTO 20012G20KT 10SM CLR 01/M08 A2987 RMK AO2 SLP141
                 T00111078 FZRANO =
2018-01-19 15:56 METAR KJHW 192056Z AUTO 21014KT 10SM CLR 02/M08 A2987 RMK AO2 SLP141 T00171078
                 55009 FZRANO =
2018-01-19 14:56 METAR KJHW 191956Z AUTO 21013G19KT 10SM CLR 02/M08 A2987 RMK AO2 SLP139
                 T00171078 FZRANO =
2018-01-19 13:56 METAR KJHW 191856Z AUTO 21013KT 10SM CLR 00/M08 A2988 RMK AO2 SLP145 T00001083
                 FZRANO =
2018-01-19 12:56 METAR KJHW 191756Z AUTO 21014KT 10SM CLR M01/M08 A2990 RMK AO2 SLP152 T10111078
                 11011 21083 58016 FZRANO TSNO =
2018-01-19 11:56 METAR KJHW 191656Z AUTO 21014G19KT 10SM CLR M03/M09 A2992 RMK AO2 SLP160
                 T10281089 FZRANO =
2018-01-19 10:56 METAR KJHW 191556Z AUTO 22014KT 10SM CLR M04/M10 A2995 RMK AO2 SLP171 T10391100
                 FZRANO =

Support USWX by starting your Amazon purchase here.